Time;durP1;ratioP1;P1;durP2;ratioP2;P2;SDS_P1;SDS_P2;PMS_P1;PMS_P2;Temp;Humidity;BMP_temperature;BMP_pressure;BME280_temperature;BME280_humidity;BME280_pressure;Samples;Min_cycle;Max_cycle;Signal;HPM_P1;HPM_P2
2021/03/23 00:00:40;;;;;;;;;;;23.70;34.70;;;;;;1543516;76;743;-77
2021/03/23 00:02:44;;;;;;;;;;;23.70;34.80;;;;;;1548182;76;748;-77
2021/03/23 00:04:46;;;;;;;;;;;23.70;34.70;;;;;;1548573;76;1171;-77
2021/03/23 00:06:47;;;;;;;;;;;23.70;34.80;;;;;;1544857;76;1158;-78
2021/03/23 00:08:50;;;;;;;;;;;23.60;34.60;;;;;;1541354;75;1932;-77
2021/03/23 00:10:52;;;;;;;;;;;23.70;34.60;;;;;;1548372;76;797;-77
2021/03/23 00:12:54;;;;;;;;;;;23.70;34.60;;;;;;1553187;75;759;-77
2021/03/23 00:14:56;;;;;;;;;;;23.60;34.50;;;;;;1550403;76;662;-77
2021/03/23 00:16:58;;;;;;;;;;;23.60;34.50;;;;;;1546435;76;1182;-77
2021/03/23 00:19:00;;;;;;;;;;;23.60;34.60;;;;;;1543723;76;804;-77
2021/03/23 00:21:02;;;;;;;;;;;23.50;34.70;;;;;;1540987;75;760;-77
2021/03/23 00:23:04;;;;;;;;;;;23.60;34.70;;;;;;1545342;75;765;-79
2021/03/23 00:25:06;;;;;;;;;;;23.60;34.80;;;;;;1546728;76;727;-79
2021/03/23 00:27:08;;;;;;;;;;;23.50;34.80;;;;;;1542286;76;1940;-79
2021/03/23 00:29:12;;;;;;;;;;;23.50;35.00;;;;;;1555627;75;786;-79
2021/03/23 00:31:14;;;;;;;;;;;23.40;34.90;;;;;;1544132;75;771;-79
2021/03/23 00:33:16;;;;;;;;;;;23.40;35.00;;;;;;1535797;76;758;-77
2021/03/23 00:35:18;;;;;;;;;;;23.40;35.20;;;;;;1543250;75;753;-79
2021/03/23 00:37:20;;;;;;;;;;;23.40;35.40;;;;;;1541898;76;1178;-77
2021/03/23 00:39:22;;;;;;;;;;;23.40;35.50;;;;;;1540182;75;777;-79
2021/03/23 00:41:24;;;;;;;;;;;23.40;35.60;;;;;;1542680;75;700;-77
2021/03/23 00:43:26;;;;;;;;;;;23.50;35.70;;;;;;1540718;75;772;-77
2021/03/23 00:45:28;;;;;;;;;;;23.50;35.70;;;;;;1547268;76;695;-78
2021/03/23 00:47:29;;;;;;;;;;;23.40;35.60;;;;;;1563696;74;1947;-80
2021/03/23 00:49:31;;;;;;;;;;;23.40;35.60;;;;;;1552192;74;796;-78
2021/03/23 00:51:33;;;;;;;;;;;23.40;35.60;;;;;;1561820;74;723;-78
2021/03/23 00:53:35;;;;;;;;;;;23.50;35.60;;;;;;1565935;74;775;-77
2021/03/23 00:55:37;;;;;;;;;;;23.50;35.50;;;;;;1559154;74;798;-76
2021/03/23 00:57:39;;;;;;;;;;;23.50;35.40;;;;;;1558854;74;1167;-76
2021/03/23 00:59:41;;;;;;;;;;;23.60;35.20;;;;;;1560607;74;739;-77
2021/03/23 01:01:42;;;;;;;;;;;23.60;35.00;;;;;;1568202;74;770;-76
2021/03/23 01:03:44;;;;;;;;;;;23.60;35.00;;;;;;1566061;74;769;-77
2021/03/23 01:05:49;;;;;;;;;;;23.70;35.00;;;;;;1558224;74;769;-78
2021/03/23 01:07:50;;;;;;;;;;;23.70;35.00;;;;;;1560451;74;1934;-77
2021/03/23 01:09:52;;;;;;;;;;;23.70;34.90;;;;;;1557983;74;796;-77
2021/03/23 01:11:53;;;;;;;;;;;23.70;34.90;;;;;;1565884;74;779;-77
2021/03/23 01:13:55;;;;;;;;;;;23.70;34.90;;;;;;1568278;74;743;-78
2021/03/23 01:15:57;;;;;;;;;;;23.70;35.00;;;;;;1557820;75;774;-77
2021/03/23 01:17:59;;;;;;;;;;;23.70;35.00;;;;;;1567137;74;1122;-78
2021/03/23 01:20:01;;;;;;;;;;;23.70;34.90;;;;;;1572268;74;760;-77
2021/03/23 01:22:03;;;;;;;;;;;23.60;35.00;;;;;;1569069;74;754;-77
2021/03/23 01:24:05;;;;;;;;;;;23.60;35.00;;;;;;1565488;74;775;-77
2021/03/23 01:26:07;;;;;;;;;;;23.60;34.90;;;;;;1570561;74;1146;-77
2021/03/23 01:28:09;;;;;;;;;;;23.70;34.90;;;;;;1566614;74;1927;-78
2021/03/23 01:30:11;;;;;;;;;;;23.70;34.70;;;;;;1566295;74;740;-78
2021/03/23 01:32:13;;;;;;;;;;;23.70;34.80;;;;;;1568673;74;808;-78
2021/03/23 01:34:15;;;;;;;;;;;23.80;34.80;;;;;;1569064;74;824;-78
2021/03/23 01:36:16;;;;;;;;;;;23.80;34.70;;;;;;1570433;74;1144;-77
2021/03/23 01:38:18;;;;;;;;;;;23.80;34.70;;;;;;1575933;74;823;-77
2021/03/23 01:40:21;;;;;;;;;;;23.70;34.90;;;;;;1565646;74;800;-77
2021/03/23 01:42:23;;;;;;;;;;;23.80;34.80;;;;;;1557844;74;621;-77
2021/03/23 01:44:24;;;;;;;;;;;23.80;34.70;;;;;;1570807;74;760;-77
2021/03/23 01:46:41;;;;;;;;;;;23.80;34.70;;;;;;1567103;74;1140;-77
2021/03/23 01:48:40;;;;;;;;;;;23.70;34.70;;;;;;1562511;74;1912;-77
2021/03/23 01:50:42;;;;;;;;;;;23.70;34.70;;;;;;1566622;74;744;-77
2021/03/23 01:52:45;;;;;;;;;;;23.80;34.70;;;;;;1545597;75;736;-77
2021/03/23 01:54:48;;;;;;;;;;;23.70;34.70;;;;;;1570093;74;775;-77
2021/03/23 01:56:50;;;;;;;;;;;23.70;34.70;;;;;;1564379;74;1499;-78
2021/03/23 01:58:52;;;;;;;;;;;23.70;34.70;;;;;;1567603;74;819;-78
2021/03/23 02:00:54;;;;;;;;;;;23.70;34.70;;;;;;1568403;74;772;-77
2021/03/23 02:02:56;;;;;;;;;;;23.70;34.80;;;;;;1565332;74;740;-78
2021/03/23 02:04:58;;;;;;;;;;;23.70;34.80;;;;;;1566818;74;776;-78
2021/03/23 02:06:59;;;;;;;;;;;23.60;34.70;;;;;;1566709;74;1232;-78
2021/03/23 02:09:02;;;;;;;;;;;23.70;34.70;;;;;;1569419;74;1938;-77
2021/03/23 02:11:03;;;;;;;;;;;23.70;34.80;;;;;;1563463;76;944;-77
2021/03/23 02:13:06;;;;;;;;;;;23.60;34.70;;;;;;1570318;74;786;-77
2021/03/23 02:15:09;;;;;;;;;;;23.70;34.80;;;;;;1566303;74;790;-77
2021/03/23 02:17:14;;;;;;;;;;;23.80;34.70;;;;;;1569473;74;1184;-77
2021/03/23 02:19:17;;;;;;;;;;;23.70;34.70;;;;;;1570601;74;747;-77
2021/03/23 02:21:19;;;;;;;;;;;23.80;34.70;;;;;;1571816;74;729;-77
2021/03/23 02:23:23;;;;;;;;;;;23.60;34.60;;;;;;1600722;73;755;-78
2021/03/23 02:25:25;;;;;;;;;;;23.70;34.70;;;;;;1594985;73;739;-78
2021/03/23 02:27:27;;;;;;;;;;;23.80;34.70;;;;;;1589811;73;1181;-78
2021/03/23 02:29:29;;;;;;;;;;;23.80;34.60;;;;;;1600695;73;1940;-78
2021/03/23 02:31:35;;;;;;;;;;;23.80;34.70;;;;;;1597585;73;758;-78
2021/03/23 02:33:38;;;;;;;;;;;23.60;34.60;;;;;;1598133;73;1184;-78
2021/03/23 02:35:40;;;;;;;;;;;23.60;34.70;;;;;;1592458;73;796;-78
2021/03/23 02:37:42;;;;;;;;;;;23.50;34.80;;;;;;1609599;73;1139;-78
2021/03/23 02:39:43;;;;;;;;;;;23.60;34.90;;;;;;1593689;73;764;-78
2021/03/23 02:41:45;;;;;;;;;;;23.60;35.00;;;;;;1595650;73;820;-78
2021/03/23 02:43:47;;;;;;;;;;;23.50;35.10;;;;;;1599634;73;773;-78
2021/03/23 02:45:51;;;;;;;;;;;23.60;35.00;;;;;;1587207;73;755;-76
2021/03/23 02:47:52;;;;;;;;;;;23.50;35.10;;;;;;1598656;73;1430;-76
2021/03/23 02:49:54;;;;;;;;;;;23.50;35.20;;;;;;1599152;73;1934;-76
2021/03/23 02:51:56;;;;;;;;;;;23.50;35.20;;;;;;1601205;73;746;-76
2021/03/23 02:53:58;;;;;;;;;;;23.50;35.30;;;;;;1599425;73;739;-76
2021/03/23 02:56:00;;;;;;;;;;;23.50;35.20;;;;;;1598212;73;733;-76
2021/03/23 02:58:02;;;;;;;;;;;23.50;35.10;;;;;;1598455;73;1277;-77
2021/03/23 03:00:06;;;;;;;;;;;23.60;35.00;;;;;;1599165;73;756;-76
2021/03/23 03:02:07;;;;;;;;;;;23.50;35.00;;;;;;1598645;73;751;-76
2021/03/23 03:04:09;;;;;;;;;;;23.50;35.10;;;;;;1599575;73;834;-76
2021/03/23 03:06:11;;;;;;;;;;;23.50;35.20;;;;;;1597165;73;1224;-76
2021/03/23 03:08:13;;;;;;;;;;;23.60;35.10;;;;;;1589111;73;1927;-75
2021/03/23 03:10:15;;;;;;;;;;;23.60;35.00;;;;;;1597611;73;797;-76
2021/03/23 03:12:17;;;;;;;;;;;23.60;35.00;;;;;;1589542;73;741;-76
2021/03/23 03:14:19;;;;;;;;;;;23.50;34.90;;;;;;1593964;73;807;-75
2021/03/23 03:16:21;;;;;;;;;;;23.60;34.80;;;;;;1596325;73;1265;-76
2021/03/23 03:18:23;;;;;;;;;;;23.60;34.80;;;;;;1599638;73;728;-76
2021/03/23 03:20:25;;;;;;;;;;;23.60;34.70;;;;;;1596924;73;750;-75
2021/03/23 03:22:27;;;;;;;;;;;23.60;34.70;;;;;;1598209;73;811;-76
2021/03/23 03:24:29;;;;;;;;;;;23.60;34.70;;;;;;1600206;73;767;-76
2021/03/23 03:26:31;;;;;;;;;;;23.50;34.80;;;;;;1597009;73;1158;-75
2021/03/23 03:28:33;;;;;;;;;;;23.50;34.90;;;;;;1601059;73;1928;-75
2021/03/23 03:30:36;;;;;;;;;;;23.50;35.10;;;;;;1599367;73;778;-75
2021/03/23 03:32:37;;;;;;;;;;;23.50;35.10;;;;;;1601181;73;749;-75
2021/03/23 03:34:39;;;;;;;;;;;23.40;35.10;;;;;;1596777;73;796;-75
2021/03/23 03:36:41;;;;;;;;;;;23.40;35.20;;;;;;1598806;73;1175;-75
2021/03/23 03:38:43;;;;;;;;;;;23.30;35.30;;;;;;1601531;73;754;-75
2021/03/23 03:40:46;;;;;;;;;;;23.30;35.40;;;;;;1603708;73;743;-75
2021/03/23 03:42:48;;;;;;;;;;;23.30;35.40;;;;;;1600396;73;751;-75
2021/03/23 03:44:49;;;;;;;;;;;23.20;35.40;;;;;;1594777;73;789;-75
2021/03/23 03:46:51;;;;;;;;;;;23.20;35.60;;;;;;1591439;73;1170;-76
2021/03/23 03:48:53;;;;;;;;;;;23.20;35.60;;;;;;1593159;73;1952;-77
2021/03/23 03:50:55;;;;;;;;;;;23.20;35.70;;;;;;1597083;73;741;-79
2021/03/23 03:52:57;;;;;;;;;;;23.20;36.00;;;;;;1580219;72;213248;-58
2021/03/23 03:54:59;;;;;;;;;;;23.20;36.00;;;;;;1532584;75;725;-58
2021/03/23 03:57:01;;;;;;;;;;;23.30;36.20;;;;;;1533231;75;813;-60
2021/03/23 03:59:03;;;;;;;;;;;23.20;36.10;;;;;;1571352;74;782;-59
2021/03/23 04:01:04;;;;;;;;;;;23.20;36.20;;;;;;1557114;74;793;-60
2021/03/23 04:03:08;;;;;;;;;;;23.20;36.10;;;;;;1554273;74;1206;-58
2021/03/23 04:05:11;;;;;;;;;;;23.20;36.20;;;;;;1524775;76;780;-58
2021/03/23 04:07:13;;;;;;;;;;;23.20;36.30;;;;;;1555425;75;1146;-59
2021/03/23 04:09:15;;;;;;;;;;;23.20;36.20;;;;;;1537981;75;1947;-58
2021/03/23 04:11:17;;;;;;;;;;;23.20;36.10;;;;;;1542691;75;733;-59
2021/03/23 04:13:19;;;;;;;;;;;23.20;36.20;;;;;;1542542;75;1243;-59
2021/03/23 04:15:25;;;;;;;;;;;23.20;36.10;;;;;;1541380;75;745;-59
2021/03/23 04:17:27;;;;;;;;;;;23.20;36.20;;;;;;1541484;75;753;-59
2021/03/23 04:19:29;;;;;;;;;;;23.20;36.10;;;;;;1549911;75;790;-59
2021/03/23 04:21:31;;;;;;;;;;;23.20;36.00;;;;;;1542962;75;1241;-58
2021/03/23 04:23:34;;;;;;;;;;;23.20;36.00;;;;;;1547135;75;735;-58
2021/03/23 04:25:36;;;;;;;;;;;23.20;36.00;;;;;;1549856;75;821;-56
2021/03/23 04:27:38;;;;;;;;;;;23.10;36.00;;;;;;1560881;75;757;-58
2021/03/23 04:29:40;;;;;;;;;;;23.20;35.90;;;;;;1558322;75;1951;-58
2021/03/23 04:31:43;;;;;;;;;;;23.20;35.90;;;;;;1557548;75;1167;-59
2021/03/23 04:33:45;;;;;;;;;;;23.20;35.90;;;;;;1542853;75;734;-58
2021/03/23 04:35:48;;;;;;;;;;;23.10;36.10;;;;;;1557973;75;791;-59
2021/03/23 04:37:50;;;;;;;;;;;23.20;36.20;;;;;;1548570;75;763;-57
2021/03/23 04:39:51;;;;;;;;;;;23.20;36.10;;;;;;1551620;75;808;-59
2021/03/23 04:41:53;;;;;;;;;;;23.20;36.10;;;;;;1544918;75;1161;-59
2021/03/23 04:43:55;;;;;;;;;;;23.20;36.10;;;;;;1549354;75;693;-59
2021/03/23 04:45:57;;;;;;;;;;;23.20;36.00;;;;;;1548019;75;743;-58
2021/03/23 04:47:59;;;;;;;;;;;23.20;36.00;;;;;;1547724;75;800;-60
2021/03/23 04:50:01;;;;;;;;;;;23.30;36.00;;;;;;1553591;75;1941;-59
2021/03/23 04:52:03;;;;;;;;;;;23.30;36.00;;;;;;1561317;75;1209;-59
2021/03/23 04:54:06;;;;;;;;;;;23.20;35.90;;;;;;1547880;75;760;-59
2021/03/23 04:56:08;;;;;;;;;;;23.20;35.90;;;;;;1553984;75;784;-59
2021/03/23 04:58:10;;;;;;;;;;;23.20;36.10;;;;;;1556754;75;804;-57
2021/03/23 05:00:12;;;;;;;;;;;23.20;36.10;;;;;;1551562;75;801;-59
2021/03/23 05:02:14;;;;;;;;;;;23.30;36.20;;;;;;1552050;75;1268;-59
2021/03/23 05:04:17;;;;;;;;;;;23.20;36.00;;;;;;1550525;75;745;-59
2021/03/23 05:06:18;;;;;;;;;;;23.20;36.00;;;;;;1541163;75;771;-59
2021/03/23 05:08:21;;;;;;;;;;;23.30;36.00;;;;;;1553567;76;818;-59
2021/03/23 05:10:22;;;;;;;;;;;23.20;35.90;;;;;;1552205;76;1939;-57
2021/03/23 05:12:24;;;;;;;;;;;23.20;36.00;;;;;;1552982;76;1188;-59
2021/03/23 05:14:26;;;;;;;;;;;23.20;36.10;;;;;;1552459;76;635;-58
2021/03/23 05:16:28;;;;;;;;;;;23.30;36.10;;;;;;1549007;75;775;-57
2021/03/23 05:18:30;;;;;;;;;;;23.20;35.80;;;;;;1555562;75;931;-58
2021/03/23 05:20:32;;;;;;;;;;;23.20;35.90;;;;;;1555206;75;751;-59
2021/03/23 05:22:34;;;;;;;;;;;23.30;36.00;;;;;;1555441;76;1159;-60
2021/03/23 05:24:36;;;;;;;;;;;23.30;36.00;;;;;;1547918;75;749;-60
2021/03/23 05:26:37;;;;;;;;;;;23.30;35.90;;;;;;1547036;75;796;-59
2021/03/23 05:28:39;;;;;;;;;;;23.30;36.00;;;;;;1551563;75;812;-58
2021/03/23 05:30:41;;;;;;;;;;;23.30;36.00;;;;;;1556142;75;1952;-59
2021/03/23 05:32:43;;;;;;;;;;;23.40;35.90;;;;;;1550292;75;1191;-58
2021/03/23 05:34:45;;;;;;;;;;;23.30;35.80;;;;;;1550726;76;775;-57
2021/03/23 05:36:47;;;;;;;;;;;23.40;35.80;;;;;;1553904;75;818;-58
2021/03/23 05:38:49;;;;;;;;;;;23.30;35.80;;;;;;1546238;75;684;-59
2021/03/23 05:40:52;;;;;;;;;;;23.30;35.80;;;;;;1557246;75;674;-59
2021/03/23 05:42:59;;;;;;;;;;;23.30;35.80;;;;;;1550203;75;1233;-58
2021/03/23 05:45:11;;;;;;;;;;;23.30;35.90;;;;;;1554423;76;1152;-59
2021/03/23 05:47:16;;;;;;;;;;;23.30;35.90;;;;;;1535899;75;1580;-57
2021/03/23 05:49:20;;;;;;;;;;;23.40;35.90;;;;;;1550535;75;1936;-58
2021/03/23 05:51:24;;;;;;;;;;;23.30;35.80;;;;;;1540563;75;1080;-58
2021/03/23 05:53:30;;;;;;;;;;;23.30;35.80;;;;;;1550813;75;1099;-57
2021/03/23 05:55:42;;;;;;;;;;;23.30;35.90;;;;;;1552761;76;479;-58
2021/03/23 05:57:45;;;;;;;;;;;23.40;35.80;;;;;;1547491;75;991;-59
2021/03/23 05:59:48;;;;;;;;;;;23.40;35.70;;;;;;1553941;75;738;-59
2021/03/23 06:01:55;;;;;;;;;;;23.40;35.60;;;;;;1554282;75;1487;-57
2021/03/23 06:04:04;;;;;;;;;;;23.40;35.70;;;;;;1548829;75;1031;-57
2021/03/23 06:06:17;;;;;;;;;;;23.40;35.70;;;;;;1547830;76;728;-59
2021/03/23 06:08:23;;;;;;;;;;;23.40;35.90;;;;;;1548990;75;1798;-59
2021/03/23 06:10:24;;;;;;;;;;;23.40;35.80;;;;;;1541029;75;1943;-59
2021/03/23 06:12:30;;;;;;;;;;;23.40;35.90;;;;;;1545234;75;1181;-58
2021/03/23 06:14:33;;;;;;;;;;;23.40;35.70;;;;;;1542922;75;673;-56
2021/03/23 06:16:52;;;;;;;;;;;23.40;36.00;;;;;;1547740;75;761;-58
2021/03/23 06:18:58;;;;;;;;;;;23.40;36.10;;;;;;1556142;76;836;-57
2021/03/23 06:21:14;;;;;;;;;;;23.40;36.20;;;;;;1552592;75;775;-59
2021/03/23 06:23:20;;;;;;;;;;;23.50;36.40;;;;;;1555114;75;1159;-59
2021/03/23 06:25:40;;;;;;;;;;;23.40;35.20;;;;;;1551345;75;1546;-58
2021/03/23 06:27:43;;;;;;;;;;;23.50;35.40;;;;;;1543713;75;731;-59
2021/03/23 06:29:46;;;;;;;;;;;23.50;35.40;;;;;;1537841;76;1944;-58
2021/03/23 06:31:53;;;;;;;;;;;23.50;35.20;;;;;;1550124;75;1174;-58
2021/03/23 06:33:55;;;;;;;;;;;23.50;35.00;;;;;;1556940;75;1635;-58
2021/03/23 06:35:58;;;;;;;;;;;23.50;35.00;;;;;;1555010;75;808;-57
2021/03/23 06:38:00;;;;;;;;;;;23.50;35.00;;;;;;1553990;75;765;-59
2021/03/23 06:40:04;;;;;;;;;;;23.50;35.00;;;;;;1521780;76;1283;-59
2021/03/23 06:42:06;;;;;;;;;;;23.50;34.70;;;;;;1555788;75;1237;-59
2021/03/23 06:44:15;;;;;;;;;;;23.50;35.00;;;;;;1546393;75;803;-59
2021/03/23 06:46:21;;;;;;;;;;;23.50;34.80;;;;;;1556044;76;810;-58
2021/03/23 06:48:29;;;;;;;;;;;23.50;34.60;;;;;;1556474;75;1614;-59
2021/03/23 06:50:35;;;;;;;;;;;23.50;34.20;;;;;;1552592;76;1939;-59
2021/03/23 06:52:37;;;;;;;;;;;23.50;34.00;;;;;;1551089;75;1177;-59
2021/03/23 06:54:39;;;;;;;;;;;23.50;33.90;;;;;;1548531;75;727;-57
2021/03/23 06:56:41;;;;;;;;;;;23.50;33.80;;;;;;1553559;75;761;-59
2021/03/23 06:58:43;;;;;;;;;;;23.50;33.60;;;;;;1555158;75;750;-59
2021/03/23 07:00:46;;;;;;;;;;;23.50;33.70;;;;;;1554913;75;735;-59
2021/03/23 07:02:48;;;;;;;;;;;23.50;33.70;;;;;;1552064;75;1165;-59
2021/03/23 07:04:50;;;;;;;;;;;23.40;33.60;;;;;;1552441;76;751;-58
2021/03/23 07:07:09;;;;;;;;;;;23.50;33.90;;;;;;1553307;75;743;-58
2021/03/23 07:09:13;;;;;;;;;;;23.50;33.90;;;;;;1553370;76;802;-57
2021/03/23 07:11:15;;;;;;;;;;;23.50;33.90;;;;;;1554229;75;1947;-58
2021/03/23 07:13:30;;;;;;;;;;;23.50;33.70;;;;;;1550698;75;1176;-58
2021/03/23 07:15:36;;;;;;;;;;;23.50;33.60;;;;;;1551561;76;822;-59
2021/03/23 07:17:39;;;;;;;;;;;23.40;33.10;;;;;;1550424;76;808;-58
2021/03/23 07:19:48;;;;;;;;;;;23.40;33.10;;;;;;1549775;75;1776;-58
2021/03/23 07:21:50;;;;;;;;;;;23.50;33.10;;;;;;1554768;76;1169;-59
2021/03/23 07:24:08;;;;;;;;;;;23.50;32.50;;;;;;1553207;75;741;-59
2021/03/23 07:26:18;;;;;;;;;;;23.50;32.50;;;;;;1554672;75;802;-57
2021/03/23 07:28:28;;;;;;;;;;;23.50;32.40;;;;;;1555929;76;723;-59
2021/03/23 07:30:30;;;;;;;;;;;23.50;32.30;;;;;;1545696;76;1920;-59
2021/03/23 07:32:39;;;;;;;;;;;23.50;32.30;;;;;;1556895;75;1172;-59
2021/03/23 07:34:52;;;;;;;;;;;23.50;32.20;;;;;;1551317;75;793;-59
2021/03/23 07:36:58;;;;;;;;;;;23.40;32.20;;;;;;1555894;75;675;-58
2021/03/23 07:39:02;;;;;;;;;;;23.40;32.10;;;;;;1552018;76;802;-59
2021/03/23 07:41:04;;;;;;;;;;;23.40;32.10;;;;;;1540476;75;746;-58
2021/03/23 07:43:19;;;;;;;;;;;23.40;32.00;;;;;;1548711;75;1235;-58
2021/03/23 07:45:27;;;;;;;;;;;23.40;32.00;;;;;;1549117;75;663;-59
2021/03/23 07:47:40;;;;;;;;;;;23.40;32.00;;;;;;1549963;76;764;-59
2021/03/23 07:49:47;;;;;;;;;;;23.40;31.90;;;;;;1556239;75;1946;-59
2021/03/23 07:51:55;;;;;;;;;;;23.40;31.40;;;;;;1554566;75;1649;-57
2021/03/23 07:53:59;;;;;;;;;;;23.40;31.60;;;;;;1551964;75;747;-58
2021/03/23 07:56:02;;;;;;;;;;;23.30;31.50;;;;;;1555489;75;1178;-59
2021/03/23 07:58:14;;;;;;;;;;;23.30;31.40;;;;;;1546719;75;1487;-56
2021/03/23 08:00:36;;;;;;;;;;;23.20;31.30;;;;;;1551631;75;780;-57
2021/03/23 08:02:56;;;;;;;;;;;23.20;31.40;;;;;;1546791;75;1134;-58
2021/03/23 08:05:07;;;;;;;;;;;23.20;31.40;;;;;;1553710;75;730;-59
2021/03/23 08:07:16;;;;;;;;;;;23.20;31.70;;;;;;1555189;75;648;-55
2021/03/23 08:09:25;;;;;;;;;;;23.20;31.50;;;;;;1550113;75;1472;-59
2021/03/23 08:11:45;;;;;;;;;;;23.20;31.50;;;;;;1550583;75;1943;-59
2021/03/23 08:14:01;;;;;;;;;;;23.20;31.50;;;;;;1544460;76;700;-57
2021/03/23 08:16:21;;;;;;;;;;;23.20;31.70;;;;;;1556523;76;776;-58
2021/03/23 08:18:42;;;;;;;;;;;23.20;31.60;;;;;;1555684;75;808;-58
2021/03/23 08:20:45;;;;;;;;;;;23.20;31.60;;;;;;1547681;75;725;-59
2021/03/23 08:23:05;;;;;;;;;;;23.20;31.50;;;;;;1550098;76;1066;-55
2021/03/23 08:25:25;;;;;;;;;;;23.20;31.60;;;;;;1552045;75;776;-58
2021/03/23 08:27:29;;;;;;;;;;;23.20;31.70;;;;;;1556620;75;736;-57
2021/03/23 08:29:32;;;;;;;;;;;23.20;31.60;;;;;;1545810;76;666;-57
2021/03/23 08:31:39;;;;;;;;;;;23.20;31.40;;;;;;1536844;75;1948;-58
2021/03/23 08:34:02;;;;;;;;;;;23.20;31.30;;;;;;1549139;76;1726;-58
2021/03/23 08:36:24;;;;;;;;;;;23.20;31.10;;;;;;1546702;75;760;-56
2021/03/23 08:38:43;;;;;;;;;;;23.20;31.00;;;;;;1541315;75;671;-58
2021/03/23 08:40:49;;;;;;;;;;;23.20;31.00;;;;;;1556041;76;979;-56
2021/03/23 08:42:51;;;;;;;;;;;23.10;30.90;;;;;;1550852;75;1231;-57
2021/03/23 08:44:55;;;;;;;;;;;23.20;31.00;;;;;;1543124;75;761;-56
2021/03/23 08:46:58;;;;;;;;;;;23.20;31.00;;;;;;1548552;75;1066;-59
2021/03/23 08:49:04;;;;;;;;;;;23.10;31.00;;;;;;1540636;75;749;-59
2021/03/23 08:51:07;;;;;;;;;;;23.20;31.00;;;;;;1543774;75;1948;-58
2021/03/23 08:53:27;;;;;;;;;;;23.10;31.00;;;;;;1547162;75;1196;-58
2021/03/23 08:55:34;;;;;;;;;;;23.20;31.00;;;;;;1543246;75;807;-60
2021/03/23 08:57:53;;;;;;;;;;;23.20;31.30;;;;;;1547872;75;757;-55
2021/03/23 08:59:56;;;;;;;;;;;23.20;31.20;;;;;;1532221;75;873;-59
2021/03/23 09:01:58;;;;;;;;;;;23.30;31.30;;;;;;1549979;75;1215;-57
2021/03/23 09:04:05;;;;;;;;;;;23.30;31.30;;;;;;1551010;75;792;-56
2021/03/23 09:06:06;;;;;;;;;;;23.20;31.10;;;;;;1556382;75;793;-58
2021/03/23 09:08:26;;;;;;;;;;;23.30;31.00;;;;;;1542524;75;802;-55
2021/03/23 09:10:38;;;;;;;;;;;23.30;31.00;;;;;;1547849;75;1950;-58
2021/03/23 09:12:42;;;;;;;;;;;23.20;30.90;;;;;;1547092;75;1173;-58
2021/03/23 09:15:02;;;;;;;;;;;23.30;31.00;;;;;;1544432;75;827;-57
2021/03/23 09:17:05;;;;;;;;;;;23.30;30.90;;;;;;1541438;75;752;-57
2021/03/23 09:19:10;;;;;;;;;;;23.20;30.80;;;;;;1549056;76;778;-56
2021/03/23 09:21:12;;;;;;;;;;;23.20;31.00;;;;;;1553996;75;837;-59
2021/03/23 09:23:19;;;;;;;;;;;23.30;30.80;;;;;;1535510;76;1168;-59
2021/03/23 09:25:25;;;;;;;;;;;23.30;30.90;;;;;;1548745;75;761;-59
2021/03/23 09:27:28;;;;;;;;;;;23.30;30.60;;;;;;1530819;77;761;-59
2021/03/23 09:29:35;;;;;;;;;;;23.30;30.70;;;;;;1551401;75;759;-59
2021/03/23 09:31:50;;;;;;;;;;;23.30;30.70;;;;;;1550368;75;1929;-58
2021/03/23 09:33:52;;;;;;;;;;;23.30;30.60;;;;;;1552981;75;736;-59
2021/03/23 09:35:56;;;;;;;;;;;23.30;30.60;;;;;;1553569;75;755;-58
2021/03/23 09:38:00;;;;;;;;;;;23.30;30.60;;;;;;1533941;75;1565;-57
2021/03/23 09:40:02;;;;;;;;;;;23.30;30.80;;;;;;1536944;75;1471;-60
2021/03/23 09:42:14;;;;;;;;;;;23.20;30.50;;;;;;1556703;75;1169;-58
2021/03/23 09:44:22;;;;;;;;;;;23.30;30.70;;;;;;1519021;75;2333;-60
2021/03/23 09:46:34;;;;;;;;;;;23.20;30.50;;;;;;1553342;75;873;-60
2021/03/23 09:48:47;;;;;;;;;;;23.20;30.50;;;;;;1549825;76;742;-58
2021/03/23 09:50:54;;;;;;;;;;;23.20;30.70;;;;;;1534779;75;1925;-56
2021/03/23 09:53:00;;;;;;;;;;;23.20;30.50;;;;;;1553202;75;1174;-59
2021/03/23 09:55:03;;;;;;;;;;;23.20;30.30;;;;;;1546486;75;1536;-59
2021/03/23 09:57:06;;;;;;;;;;;23.30;30.40;;;;;;1547966;75;748;-59
2021/03/23 09:59:10;;;;;;;;;;;23.30;30.30;;;;;;1551148;75;717;-59
2021/03/23 10:01:21;;;;;;;;;;;23.40;30.20;;;;;;1547180;75;1077;-55
2021/03/23 10:03:32;;;;;;;;;;;23.40;30.20;;;;;;1553782;75;1117;-58
2021/03/23 10:05:34;;;;;;;;;;;23.40;30.00;;;;;;1545074;76;1599;-57
2021/03/23 10:07:42;;;;;;;;;;;23.50;30.00;;;;;;1549794;75;747;-57
2021/03/23 10:09:43;;;;;;;;;;;23.40;29.90;;;;;;1554533;75;1585;-58
2021/03/23 10:11:45;;;;;;;;;;;23.40;29.90;;;;;;1551575;75;1943;-57
2021/03/23 10:13:48;;;;;;;;;;;23.40;29.80;;;;;;1555171;75;772;-56
2021/03/23 10:15:50;;;;;;;;;;;23.50;29.80;;;;;;1545191;76;665;-59
2021/03/23 10:17:52;;;;;;;;;;;23.50;29.80;;;;;;1545389;75;788;-59
2021/03/23 10:19:55;;;;;;;;;;;23.40;29.50;;;;;;1554969;75;675;-57
2021/03/23 10:21:57;;;;;;;;;;;23.40;29.50;;;;;;1538640;75;1300;-59
2021/03/23 10:24:00;;;;;;;;;;;23.40;29.50;;;;;;1529157;76;760;-57
2021/03/23 10:26:03;;;;;;;;;;;23.50;29.70;;;;;;1551938;75;783;-57
2021/03/23 10:28:05;;;;;;;;;;;23.40;29.60;;;;;;1545669;75;917;-57
2021/03/23 10:30:10;;;;;;;;;;;23.40;29.50;;;;;;1544453;75;808;-57
2021/03/23 10:32:18;;;;;;;;;;;23.40;29.60;;;;;;1550074;75;1939;-56
2021/03/23 10:34:22;;;;;;;;;;;23.30;29.40;;;;;;1547617;76;747;-57
2021/03/23 10:36:25;;;;;;;;;;;23.40;29.50;;;;;;1551346;75;764;-58
2021/03/23 10:38:32;;;;;;;;;;;23.40;29.40;;;;;;1552883;75;1068;-58
2021/03/23 10:40:38;;;;;;;;;;;23.40;29.30;;;;;;1546650;75;815;-57
2021/03/23 10:42:42;;;;;;;;;;;23.40;29.20;;;;;;1544703;76;1176;-56
2021/03/23 10:44:44;;;;;;;;;;;23.40;29.00;;;;;;1543155;76;1569;-59
2021/03/23 10:46:46;;;;;;;;;;;23.40;29.10;;;;;;1554077;75;817;-57
2021/03/23 10:48:49;;;;;;;;;;;23.40;29.00;;;;;;1539012;75;767;-58
2021/03/23 10:51:09;;;;;;;;;;;23.40;29.00;;;;;;1543356;75;1931;-54
2021/03/23 10:53:12;;;;;;;;;;;23.60;28.60;;;;;;1555907;75;1149;-57
2021/03/23 10:55:21;;;;;;;;;;;23.50;28.50;;;;;;1552531;75;786;-58
2021/03/23 10:57:27;;;;;;;;;;;23.60;28.20;;;;;;1551191;75;800;-56
2021/03/23 10:59:33;;;;;;;;;;;23.60;27.60;;;;;;1551728;75;785;-58
2021/03/23 11:01:34;;;;;;;;;;;23.60;27.60;;;;;;1553740;75;1177;-55
2021/03/23 11:03:36;;;;;;;;;;;23.60;27.60;;;;;;1555053;75;803;-56
2021/03/23 11:05:45;;;;;;;;;;;23.60;27.40;;;;;;1555072;75;716;-58
2021/03/23 11:07:55;;;;;;;;;;;23.60;27.00;;;;;;1555254;76;754;-58
2021/03/23 11:09:58;;;;;;;;;;;23.50;27.20;;;;;;1555447;75;782;-57
2021/03/23 11:12:00;;;;;;;;;;;23.60;26.90;;;;;;1554973;75;1939;-57
2021/03/23 11:14:02;;;;;;;;;;;23.50;27.10;;;;;;1553813;75;764;-55
2021/03/23 11:16:07;;;;;;;;;;;23.50;26.60;;;;;;1543605;75;763;-55
2021/03/23 11:18:15;;;;;;;;;;;23.50;26.90;;;;;;1546915;76;1408;-58
2021/03/23 11:20:19;;;;;;;;;;;23.50;25.90;;;;;;1546160;76;755;-58
2021/03/23 11:22:22;;;;;;;;;;;23.50;26.80;;;;;;1550488;75;1174;-56
2021/03/23 11:24:24;;;;;;;;;;;23.50;27.00;;;;;;1554604;75;1699;-59
2021/03/23 11:26:27;;;;;;;;;;;23.40;27.10;;;;;;1552408;75;769;-58
2021/03/23 11:28:30;;;;;;;;;;;23.40;27.30;;;;;;1541812;75;745;-58
2021/03/23 11:30:32;;;;;;;;;;;23.30;27.70;;;;;;1542592;75;762;-56
2021/03/23 11:32:34;;;;;;;;;;;23.30;27.90;;;;;;1539798;75;1928;-57
2021/03/23 11:34:36;;;;;;;;;;;23.30;28.10;;;;;;1539763;75;743;-57
2021/03/23 11:36:38;;;;;;;;;;;23.20;28.20;;;;;;1546891;75;910;-56
2021/03/23 11:38:40;;;;;;;;;;;23.20;28.30;;;;;;1545072;76;719;-56
2021/03/23 11:40:42;;;;;;;;;;;23.20;28.50;;;;;;1540556;75;783;-57
2021/03/23 11:42:45;;;;;;;;;;;23.20;28.60;;;;;;1539923;76;1177;-57
2021/03/23 11:44:47;;;;;;;;;;;23.20;28.70;;;;;;1549426;76;689;-54
2021/03/23 11:46:56;;;;;;;;;;;23.20;28.80;;;;;;1548406;75;794;-58
2021/03/23 11:49:06;;;;;;;;;;;23.20;28.90;;;;;;1541130;75;1609;-58
2021/03/23 11:51:02;;;;;;;;;;;23.30;29.00;;;;;;1546041;75;1939;-57
2021/03/23 11:53:04;;;;;;;;;;;23.20;29.10;;;;;;1547693;75;1177;-58
2021/03/23 11:55:08;;;;;;;;;;;23.20;29.10;;;;;;1548607;75;816;-58
2021/03/23 11:57:11;;;;;;;;;;;23.20;29.20;;;;;;1549165;75;1344;-57
2021/03/23 11:59:13;;;;;;;;;;;23.20;29.20;;;;;;1557431;75;798;-56
2021/03/23 12:01:15;;;;;;;;;;;23.20;29.20;;;;;;1555335;75;814;-56
2021/03/23 12:03:17;;;;;;;;;;;23.20;29.20;;;;;;1549753;75;1163;-55
2021/03/23 12:05:19;;;;;;;;;;;23.20;29.20;;;;;;1551254;75;719;-57
2021/03/23 12:07:31;;;;;;;;;;;23.30;29.20;;;;;;1546008;75;737;-57
2021/03/23 12:09:38;;;;;;;;;;;23.30;29.10;;;;;;1544050;75;731;-55
2021/03/23 12:11:41;;;;;;;;;;;23.30;29.20;;;;;;1542723;75;1953;-54
2021/03/23 12:13:48;;;;;;;;;;;23.30;29.10;;;;;;1545671;75;736;-57
2021/03/23 12:16:00;;;;;;;;;;;23.30;29.10;;;;;;1540933;75;633;-54
2021/03/23 12:18:07;;;;;;;;;;;23.40;28.60;;;;;;1543264;75;762;-59
2021/03/23 12:20:10;;;;;;;;;;;23.40;28.80;;;;;;1556057;75;1625;-59
2021/03/23 12:22:12;;;;;;;;;;;23.30;28.60;;;;;;1558363;75;1187;-58